Time;durP1;ratioP1;P1;durP2;ratioP2;P2;SDS_P1;SDS_P2;PMS_P1;PMS_P2;Temp;Humidity;BMP_temperature;BMP_pressure;BME280_temperature;BME280_humidity;BME280_pressure;Samples;Min_cycle;Max_cycle;Signal;HPM_P1;HPM_P2
2023/01/30 00:00:31;;;;;;;22.70;12.65;;;6.70;99.90;;;;;;5030411;28;20047;-72
2023/01/30 00:02:57;;;;;;;28.40;14.00;;;6.60;99.90;;;;;;5030330;28;20083;-72
2023/01/30 00:05:23;;;;;;;24.77;12.35;;;6.60;99.90;;;;;;5029849;28;20042;-72
2023/01/30 00:07:49;;;;;;;23.50;11.95;;;6.70;99.90;;;;;;5029891;28;20049;-72
2023/01/30 00:10:15;;;;;;;21.45;11.75;;;6.60;99.90;;;;;;5029927;28;20057;-72
2023/01/30 00:12:41;;;;;;;22.02;11.43;;;6.70;99.90;;;;;;5012755;28;20511;-72
2023/01/30 00:15:07;;;;;;;25.05;11.73;;;6.60;99.90;;;;;;5031349;28;20124;-72
2023/01/30 00:17:33;;;;;;;18.33;10.60;;;6.70;99.90;;;;;;5031273;28;20033;-72
2023/01/30 00:19:58;;;;;;;18.55;10.52;;;6.70;99.90;;;;;;5012685;28;20064;-72
2023/01/30 00:22:24;;;;;;;19.40;9.82;;;6.70;99.90;;;;;;5031038;28;20042;-72
2023/01/30 00:24:50;;;;;;;23.48;9.18;;;6.70;99.90;;;;;;5029686;28;20041;-73
2023/01/30 00:27:16;;;;;;;19.15;9.85;;;6.70;99.90;;;;;;5029054;28;20106;-73
2023/01/30 00:29:42;;;;;;;17.98;7.28;;;6.70;99.90;;;;;;5029919;28;20049;-72
2023/01/30 00:32:08;;;;;;;16.58;6.90;;;6.80;99.90;;;;;;5030809;28;20058;-72
2023/01/30 00:34:33;;;;;;;16.67;6.38;;;6.80;99.90;;;;;;5030264;28;20116;-73
2023/01/30 00:36:59;;;;;;;29.05;8.52;;;6.90;99.90;;;;;;5029747;28;20044;-73
2023/01/30 00:39:25;;;;;;;12.88;6.00;;;6.90;99.90;;;;;;5012928;28;20379;-73
2023/01/30 00:47:21;;;;;;;13.38;5.63;;;7.00;99.90;;;;;;5030113;28;20140;-72
2023/01/30 00:49:47;;;;;;;18.00;6.45;;;7.00;99.90;;;;;;5012841;28;20102;-73
2023/01/30 00:52:13;;;;;;;17.10;7.35;;;7.00;99.90;;;;;;5030293;28;20120;-73
2023/01/30 00:54:38;;;;;;;15.40;5.20;;;7.00;99.90;;;;;;5028550;28;20038;-68
2023/01/30 00:57:04;;;;;;;14.50;5.60;;;7.00;99.90;;;;;;5029205;28;20048;-72
2023/01/30 00:59:30;;;;;;;17.23;6.25;;;7.00;99.90;;;;;;5030482;28;20135;-72
2023/01/30 01:01:56;;;;;;;14.80;5.55;;;6.90;99.90;;;;;;5012028;28;20071;-69
2023/01/30 01:04:21;;;;;;;17.10;6.35;;;6.90;99.90;;;;;;5030278;28;20033;-72
2023/01/30 01:06:47;;;;;;;14.10;6.07;;;7.00;99.90;;;;;;5040658;28;20059;-71
2023/01/30 01:09:13;;;;;;;14.57;5.55;;;7.00;99.90;;;;;;5049597;28;20051;-70
2023/01/30 01:11:39;;;;;;;17.02;6.20;;;6.90;99.90;;;;;;5032039;28;20401;-67
2023/01/30 01:14:05;;;;;;;17.48;6.05;;;6.90;99.90;;;;;;5050020;28;20079;-70
2023/01/30 01:16:32;;;;;;;19.20;6.35;;;6.90;99.90;;;;;;5031505;28;20041;-69
2023/01/30 01:18:58;;;;;;;22.20;6.55;;;6.90;99.90;;;;;;5049908;28;20068;-69
2023/01/30 01:21:24;;;;;;;16.08;6.65;;;6.90;99.90;;;;;;5050026;28;20061;-70
2023/01/30 01:23:51;;;;;;;18.33;7.10;;;6.90;99.90;;;;;;5031404;28;20041;-66
2023/01/30 01:26:18;;;;;;;14.07;5.85;;;6.80;99.90;;;;;;5031913;28;20079;-69
2023/01/30 01:28:43;;;;;;;21.35;7.00;;;6.80;99.90;;;;;;5049691;28;20568;-70
2023/01/30 01:31:11;;;;;;;18.65;6.72;;;6.80;99.90;;;;;;5031458;28;20120;-69
2023/01/30 01:33:38;;;;;;;19.08;6.35;;;6.80;99.90;;;;;;5049607;28;20370;-67
2023/01/30 01:36:04;;;;;;;17.55;5.53;;;6.80;99.90;;;;;;5049226;28;20471;-69
2023/01/30 01:38:30;;;;;;;17.75;6.25;;;6.80;99.90;;;;;;5049798;28;20326;-70
2023/01/30 01:41:02;;;;;;;14.98;5.93;;;6.80;99.90;;;;;;5015513;28;20084;-69
2023/01/30 01:43:37;;;;;;;19.75;5.25;;;6.80;99.90;;;;;;5049020;28;20036;-70
2023/01/30 01:46:28;;;;;;;18.02;6.28;;;6.70;99.90;;;;;;5031948;28;20044;-68
2023/01/30 01:48:57;;;;;;;21.27;5.60;;;6.70;99.90;;;;;;5049699;28;20108;-69
2023/01/30 01:51:22;;;;;;;19.80;6.38;;;6.70;99.90;;;;;;5031061;28;20124;-70
2023/01/30 01:54:08;;;;;;;18.08;6.30;;;6.70;99.90;;;;;;5049352;28;20499;-70
2023/01/30 01:56:37;;;;;;;17.60;5.53;;;6.70;99.90;;;;;;5049347;28;20405;-68
2023/01/30 01:59:17;;;;;;;17.42;5.93;;;6.70;99.90;;;;;;5031284;28;20037;-70
2023/01/30 02:01:42;;;;;;;19.08;5.40;;;6.70;99.90;;;;;;5031693;28;20048;-71
2023/01/30 02:04:10;;;;;;;15.73;5.57;;;6.70;99.90;;;;;;5048784;28;20528;-68
2023/01/30 02:06:38;;;;;;;15.68;5.65;;;6.70;99.90;;;;;;5049081;28;20060;-68
2023/01/30 02:09:09;;;;;;;15.75;5.70;;;6.60;99.90;;;;;;5049582;28;20052;-71
2023/01/30 02:11:48;;;;;;;18.55;5.75;;;6.70;99.90;;;;;;5030807;28;20080;-69
2023/01/30 02:14:16;;;;;;;21.90;6.10;;;6.60;99.90;;;;;;5031284;28;20504;-70
2023/01/30 02:16:44;;;;;;;18.73;5.50;;;6.60;99.90;;;;;;5031441;28;20043;-69
2023/01/30 02:19:30;;;;;;;16.02;5.28;;;6.60;99.90;;;;;;5048578;28;20064;-70
2023/01/30 02:22:24;;;;;;;17.05;5.82;;;6.60;99.90;;;;;;5049360;28;20052;-71
2023/01/30 02:25:06;;;;;;;20.85;7.25;;;6.70;99.90;;;;;;5030659;28;20127;-71
2023/01/30 02:27:53;;;;;;;21.48;6.75;;;6.70;99.90;;;;;;5031293;28;20072;-68
2023/01/30 02:30:40;;;;;;;23.23;5.45;;;6.80;99.90;;;;;;5049270;28;20326;-70
2023/01/30 02:33:13;;;;;;;19.38;7.07;;;6.80;99.90;;;;;;5030430;28;20080;-70
2023/01/30 02:35:54;;;;;;;20.90;6.78;;;6.80;99.90;;;;;;5049024;28;20049;-70
2023/01/30 02:38:55;;;;;;;20.05;5.78;;;6.80;99.90;;;;;;5030942;28;20635;-70
2023/01/30 02:41:33;;;;;;;25.33;6.75;;;6.80;99.90;;;;;;5031299;28;20060;-71
2023/01/30 02:44:32;;;;;;;19.17;5.75;;;6.90;99.90;;;;;;5031305;28;20103;-71
2023/01/30 02:47:04;;;;;;;20.65;6.13;;;6.90;99.90;;;;;;5025042;28;20057;-71
2023/01/30 02:49:45;;;;;;;17.63;5.15;;;6.90;99.90;;;;;;5031222;28;20033;-71
2023/01/30 02:52:12;;;;;;;27.02;5.63;;;6.90;99.90;;;;;;5030871;28;20044;-71
2023/01/30 02:54:38;;;;;;;28.92;5.45;;;7.00;99.90;;;;;;5030321;28;20043;-72
2023/01/30 02:57:20;;;;;;;18.55;5.32;;;7.00;99.90;;;;;;5030853;28;20033;-70
2023/01/30 02:59:51;;;;;;;22.08;6.10;;;7.00;99.90;;;;;;5031235;28;20493;-72
2023/01/30 03:03:06;;;;;;;;;;;7.00;99.90;;;;;;5031330;28;20088;-72
2023/01/30 03:05:43;;;;;;;21.23;5.40;;;7.00;99.90;;;;;;4987745;28;19956;-71
2023/01/30 03:08:09;;;;;;;17.52;5.50;;;7.00;99.90;;;;;;4974171;28;20294;-71
2023/01/30 03:10:42;;;;;;;26.90;7.10;;;7.00;99.90;;;;;;4990508;28;20529;-73
2023/01/30 03:13:15;;;;;;;22.13;5.32;;;7.00;99.90;;;;;;4958163;28;20062;-70
2023/01/30 03:15:48;;;;;;;19.25;5.32;;;6.90;99.90;;;;;;4989849;28;20038;-72
2023/01/30 03:18:16;;;;;;;26.08;6.65;;;7.00;99.90;;;;;;4990507;28;20042;-71
2023/01/30 03:20:42;;;;;;;27.00;5.47;;;6.90;99.90;;;;;;4974191;28;20035;-72
2023/01/30 03:23:08;;;;;;;22.48;5.85;;;6.90;99.90;;;;;;4957434;28;20141;-72
2023/01/30 03:25:36;;;;;;;21.40;6.13;;;6.90;99.90;;;;;;4974046;28;20063;-71
2023/01/30 03:28:04;;;;;;;17.42;5.13;;;6.90;99.90;;;;;;4973720;28;20205;-70
2023/01/30 03:30:30;;;;;;;26.00;6.47;;;6.90;99.90;;;;;;4973932;28;20075;-70
2023/01/30 03:32:56;;;;;;;18.88;4.80;;;6.90;99.90;;;;;;4973853;28;20050;-71
2023/01/30 03:35:22;;;;;;;27.92;6.72;;;6.90;99.90;;;;;;5001643;28;20124;-71
2023/01/30 03:37:48;;;;;;;28.05;6.15;;;6.90;99.90;;;;;;5017524;28;20048;-71
2023/01/30 03:40:15;;;;;;;21.15;5.68;;;6.90;99.90;;;;;;5017590;28;20036;-71
2023/01/30 03:42:41;;;;;;;14.23;5.13;;;7.00;99.90;;;;;;5051185;28;20079;-72
2023/01/30 03:45:08;;;;;;;23.60;5.60;;;6.90;99.90;;;;;;5051504;28;20036;-71
2023/01/30 03:47:34;;;;;;;23.10;5.32;;;6.90;99.90;;;;;;5017596;28;20086;-71
2023/01/30 03:49:59;;;;;;;20.23;4.70;;;6.90;99.90;;;;;;5051166;28;20116;-69
2023/01/30 03:52:25;;;;;;;19.48;5.18;;;6.90;99.90;;;;;;5033725;28;20036;-71
2023/01/30 03:54:51;;;;;;;21.10;5.07;;;6.90;99.90;;;;;;5033554;28;20041;-71
2023/01/30 03:57:17;;;;;;;19.35;5.50;;;7.00;99.90;;;;;;5050834;28;20069;-72
2023/01/30 03:59:42;;;;;;;20.65;5.43;;;6.90;99.90;;;;;;5033359;28;20045;-70
2023/01/30 04:02:08;;;;;;;24.83;6.60;;;7.00;99.90;;;;;;5017047;28;20052;-72
2023/01/30 04:04:34;;;;;;;18.13;4.80;;;7.00;99.90;;;;;;5050879;28;20047;-72
2023/01/30 04:07:00;;;;;;;19.98;5.40;;;7.00;99.90;;;;;;5033236;28;20138;-72
2023/01/30 04:09:26;;;;;;;19.83;5.30;;;7.00;99.90;;;;;;5017029;28;20088;-71
2023/01/30 04:11:52;;;;;;;18.90;4.88;;;7.00;99.90;;;;;;5032770;28;20456;-72
2023/01/30 04:14:18;;;;;;;23.92;4.47;;;6.90;99.90;;;;;;5016749;28;20033;-71
2023/01/30 04:16:44;;;;;;;16.23;4.68;;;6.90;99.90;;;;;;5050177;28;20485;-71
2023/01/30 04:19:10;;;;;;;15.98;4.25;;;7.00;99.90;;;;;;5050406;28;20065;-68
2023/01/30 04:21:36;;;;;;;16.38;4.13;;;7.00;99.90;;;;;;5033452;28;20201;-70
2023/01/30 04:24:02;;;;;;;19.63;4.72;;;7.00;99.90;;;;;;5050283;28;20551;-71
2023/01/30 04:26:28;;;;;;;15.80;4.03;;;7.00;99.90;;;;;;5050884;28;20040;-72
2023/01/30 04:28:54;;;;;;;22.08;4.47;;;7.00;99.90;;;;;;5051134;28;20499;-73
2023/01/30 04:31:20;;;;;;;21.25;4.40;;;7.00;99.90;;;;;;5032275;28;20045;-73
2023/01/30 04:33:45;;;;;;;21.25;4.10;;;7.00;99.90;;;;;;5033005;28;20119;-72
2023/01/30 04:36:12;;;;;;;23.52;5.57;;;7.00;99.90;;;;;;5032898;28;20037;-72
2023/01/30 04:38:38;;;;;;;21.95;4.63;;;6.90;99.90;;;;;;5015784;28;20097;-72
2023/01/30 04:41:05;;;;;;;22.98;4.80;;;6.80;99.90;;;;;;5016459;28;20091;-71
2023/01/30 04:43:31;;;;;;;16.52;3.67;;;6.80;99.90;;;;;;5032710;28;20474;-72
2023/01/30 04:45:57;;;;;;;21.58;4.68;;;6.60;99.90;;;;;;5049930;28;20036;-72
2023/01/30 04:48:24;;;;;;;20.88;5.13;;;6.50;99.90;;;;;;5032679;28;20116;-72
2023/01/30 04:50:52;;;;;;;21.00;4.85;;;6.40;99.90;;;;;;5032861;28;20094;-72
2023/01/30 04:53:19;;;;;;;26.38;5.03;;;6.30;99.90;;;;;;5015812;28;20106;-72
2023/01/30 04:55:45;;;;;;;25.85;6.00;;;6.30;99.90;;;;;;5015968;28;20037;-72
2023/01/30 04:58:11;;;;;;;18.63;4.57;;;6.30;99.90;;;;;;5050282;28;20478;-72
2023/01/30 05:00:37;;;;;;;26.38;4.97;;;6.20;99.90;;;;;;5049871;28;20044;-72
2023/01/30 05:03:03;;;;;;;25.65;3.78;;;6.10;99.90;;;;;;5016101;28;20048;-72
2023/01/30 05:05:29;;;;;;;17.58;4.65;;;6.00;99.90;;;;;;5050191;28;20037;-72
2023/01/30 05:07:55;;;;;;;23.42;4.95;;;6.00;99.90;;;;;;5031518;28;20067;-72
2023/01/30 05:10:21;;;;;;;29.73;6.97;;;5.90;99.90;;;;;;5032029;28;20111;-72
2023/01/30 05:12:46;;;;;;;21.08;3.70;;;5.90;99.90;;;;;;5032049;28;20051;-72
2023/01/30 05:15:13;;;;;;;23.92;4.20;;;5.90;99.90;;;;;;5031552;28;20233;-72
2023/01/30 05:17:39;;;;;;;14.35;3.83;;;6.00;99.90;;;;;;5050145;28;20033;-72
2023/01/30 05:20:07;;;;;;;22.77;4.82;;;6.00;99.90;;;;;;5031650;28;20124;-72
2023/01/30 05:22:33;;;;;;;17.27;6.07;;;6.00;99.90;;;;;;5032332;28;20378;-70
2023/01/30 05:24:58;;;;;;;19.58;4.55;;;6.00;99.90;;;;;;5049757;28;20123;-71
2023/01/30 05:27:25;;;;;;;17.58;5.53;;;6.00;99.90;;;;;;5031370;28;20047;-70
2023/01/30 05:29:50;;;;;;;21.67;6.28;;;6.00;99.90;;;;;;5015216;28;20041;-72
2023/01/30 05:32:18;;;;;;;19.27;4.18;;;6.00;99.90;;;;;;5031956;28;20048;-72
2023/01/30 05:34:44;;;;;;;20.15;5.28;;;6.00;99.90;;;;;;5031460;28;20053;-72
2023/01/30 05:37:11;;;;;;;27.00;5.68;;;6.00;99.90;;;;;;5049592;28;20520;-70
2023/01/30 05:39:37;;;;;;;15.30;3.42;;;6.00;99.90;;;;;;5032100;28;20041;-72
2023/01/30 05:42:04;;;;;;;19.83;4.20;;;6.00;99.90;;;;;;5031226;28;20182;-71
2023/01/30 05:44:30;;;;;;;18.85;3.58;;;5.90;99.90;;;;;;5049683;28;20435;-71
2023/01/30 05:46:56;;;;;;;20.80;4.15;;;5.90;99.90;;;;;;5015182;28;20118;-71
2023/01/30 05:49:22;;;;;;;20.88;5.22;;;5.90;99.90;;;;;;5031562;28;20099;-73
2023/01/30 05:51:48;;;;;;;27.48;3.95;;;5.80;99.90;;;;;;5050125;28;20060;-72
2023/01/30 05:54:14;;;;;;;16.98;4.03;;;5.80;99.90;;;;;;5032248;28;20397;-72
2023/01/30 05:56:40;;;;;;;20.60;4.40;;;5.80;99.90;;;;;;5050276;28;20041;-75
2023/01/30 05:59:06;;;;;;;20.38;4.35;;;5.80;99.90;;;;;;5032548;28;20044;-73
2023/01/30 06:01:32;;;;;;;19.88;4.22;;;5.80;99.90;;;;;;5050245;28;20048;-73
2023/01/30 06:03:58;;;;;;;22.30;3.85;;;5.80;99.90;;;;;;5049913;28;20550;-71
2023/01/30 06:06:24;;;;;;;16.80;3.67;;;5.70;99.90;;;;;;5032556;28;20063;-73
2023/01/30 06:08:56;;;;;;;16.33;3.95;;;5.70;99.90;;;;;;5031829;28;20076;-73
2023/01/30 06:11:23;;;;;;;23.15;3.40;;;5.70;99.90;;;;;;5033252;28;20106;-72
2023/01/30 06:13:49;;;;;;;20.83;4.78;;;5.70;99.90;;;;;;5017444;28;20416;-73
2023/01/30 06:16:16;;;;;;;12.00;3.42;;;5.80;99.90;;;;;;5050307;28;20037;-75
2023/01/30 06:18:42;;;;;;;19.85;4.38;;;5.80;99.90;;;;;;5050356;28;20037;-74
2023/01/30 06:21:08;;;;;;;20.88;4.40;;;5.80;99.90;;;;;;5016089;28;20041;-73
2023/01/30 06:23:34;;;;;;;24.42;3.65;;;5.80;99.90;;;;;;5031877;28;20045;-72
2023/01/30 06:26:00;;;;;;;20.40;5.63;;;5.70;99.90;;;;;;5032284;28;20048;-72
2023/01/30 06:28:26;;;;;;;21.75;4.38;;;5.70;99.90;;;;;;5015851;28;20267;-73
2023/01/30 06:30:52;;;;;;;23.75;5.38;;;5.60;99.90;;;;;;5049665;28;20149;-73
2023/01/30 06:33:19;;;;;;;21.20;4.57;;;5.70;99.90;;;;;;5015834;28;20551;-73
2023/01/30 06:35:48;;;;;;;22.77;4.57;;;5.60;99.90;;;;;;5050136;28;20040;-73
2023/01/30 06:38:14;;;;;;;21.20;4.40;;;5.60;99.90;;;;;;5031806;28;20532;-74
2023/01/30 06:40:43;;;;;;;33.65;4.45;;;5.70;99.90;;;;;;5051258;28;20079;-73
2023/01/30 06:43:08;;;;;;;20.80;3.88;;;5.70;99.90;;;;;;5053999;28;20072;-72
2023/01/30 06:45:35;;;;;;;28.88;5.68;;;5.70;99.90;;;;;;5035672;28;20079;-72
2023/01/30 06:48:01;;;;;;;19.38;3.60;;;5.70;99.90;;;;;;5053894;28;20041;-74
2023/01/30 06:50:28;;;;;;;18.45;4.25;;;5.70;99.90;;;;;;5053816;28;20039;-73
2023/01/30 06:52:54;;;;;;;19.58;4.38;;;5.70;99.90;;;;;;5053503;28;20045;-73
2023/01/30 06:55:23;;;;;;;22.70;3.92;;;5.70;99.90;;;;;;5054066;28;20074;-72
2023/01/30 06:57:49;;;;;;;26.02;4.47;;;5.70;99.90;;;;;;5035859;28;20045;-74
2023/01/30 07:00:18;;;;;;;22.90;4.38;;;5.70;99.90;;;;;;5053811;28;20124;-72
2023/01/30 07:02:44;;;;;;;26.15;4.15;;;5.70;99.90;;;;;;5053753;28;20041;-74
2023/01/30 07:05:11;;;;;;;23.17;3.60;;;5.70;99.90;;;;;;5053376;28;20144;-74
2023/01/30 07:07:38;;;;;;;38.97;7.57;;;5.70;99.90;;;;;;5053564;28;20056;-74
2023/01/30 07:10:05;;;;;;;19.15;4.82;;;5.70;99.90;;;;;;5035921;28;20040;-72
2023/01/30 07:12:31;;;;;;;22.67;5.18;;;5.80;99.90;;;;;;5035078;28;20052;-73
2023/01/30 07:14:57;;;;;;;25.13;5.43;;;5.80;99.90;;;;;;5019127;28;20032;-74
2023/01/30 07:17:23;;;;;;;18.70;4.65;;;5.90;99.90;;;;;;5053004;28;20158;-74
2023/01/30 07:19:49;;;;;;;22.30;4.57;;;6.00;99.90;;;;;;5036552;28;20641;-73
2023/01/30 07:22:15;;;;;;;22.73;5.40;;;6.00;99.90;;;;;;5055603;28;20167;-74
2023/01/30 07:24:41;;;;;;;17.67;4.32;;;6.10;99.90;;;;;;5054907;28;20501;-73
2023/01/30 07:27:12;;;;;;;22.88;4.32;;;6.10;99.90;;;;;;5054149;28;20041;-74
2023/01/30 07:29:38;;;;;;;20.17;4.43;;;6.10;99.90;;;;;;5036694;28;20041;-74
2023/01/30 07:32:06;;;;;;;21.02;3.80;;;6.20;99.90;;;;;;5055196;28;20056;-74
2023/01/30 07:34:32;;;;;;;31.10;4.53;;;6.20;99.90;;;;;;5054349;28;20039;-74
2023/01/30 07:36:58;;;;;;;19.65;4.18;;;6.20;99.90;;;;;;5054392;28;20037;-74
2023/01/30 07:39:24;;;;;;;23.35;4.95;;;6.20;99.90;;;;;;5054513;28;20045;-75
2023/01/30 07:41:50;;;;;;;19.45;4.47;;;6.20;99.90;;;;;;5054336;28;20615;-74
2023/01/30 07:44:15;;;;;;;29.20;5.82;;;6.20;99.90;;;;;;5054535;28;20037;-74
2023/01/30 07:46:41;;;;;;;17.98;4.07;;;6.30;99.90;;;;;;5036593;28;20045;-74
2023/01/30 07:49:09;;;;;;;22.90;4.82;;;6.20;99.90;;;;;;5054530;28;20040;-72
2023/01/30 07:51:36;;;;;;;21.40;4.55;;;6.30;99.90;;;;;;5035931;28;20049;-74
2023/01/30 07:54:02;;;;;;;23.33;4.97;;;6.30;99.90;;;;;;5032333;28;20087;-73
2023/01/30 07:56:29;;;;;;;27.77;4.55;;;6.30;99.90;;;;;;5015855;28;20079;-74
2023/01/30 07:58:55;;;;;;;18.50;4.13;;;6.30;99.90;;;;;;5035893;28;20041;-73
2023/01/30 08:01:22;;;;;;;18.00;3.90;;;6.30;99.90;;;;;;5018588;28;20044;-73
2023/01/30 08:03:48;;;;;;;24.33;6.53;;;6.30;99.90;;;;;;5053348;28;20045;-74
2023/01/30 08:06:17;;;;;;;18.02;4.70;;;6.20;99.90;;;;;;5018410;28;20140;-72
2023/01/30 08:08:43;;;;;;;26.77;4.75;;;6.20;99.90;;;;;;5034626;28;20049;-74
2023/01/30 08:11:10;;;;;;;24.60;4.18;;;6.30;99.90;;;;;;5034732;28;20041;-69
2023/01/30 08:13:36;;;;;;;24.65;4.00;;;6.30;99.90;;;;;;5034890;28;20036;-71
2023/01/30 08:16:03;;;;;;;21.23;5.47;;;6.30;99.90;;;;;;5034763;28;20404;-74
2023/01/30 08:18:30;;;;;;;27.48;5.50;;;6.30;99.90;;;;;;5053061;28;20037;-74
2023/01/30 08:21:00;;;;;;;21.45;4.43;;;6.30;99.90;;;;;;5035191;28;20044;-74
2023/01/30 08:23:26;;;;;;;21.77;4.70;;;6.40;99.90;;;;;;5053191;28;20036;-74
2023/01/30 08:25:56;;;;;;;19.45;4.30;;;6.40;99.90;;;;;;5052934;28;20546;-73
2023/01/30 08:28:22;;;;;;;21.60;4.47;;;6.40;99.90;;;;;;5035054;28;20036;-74
2023/01/30 08:30:48;;;;;;;20.27;4.22;;;6.50;99.90;;;;;;5034600;28;20072;-72
2023/01/30 08:33:14;;;;;;;26.83;5.13;;;6.50;99.90;;;;;;5034492;28;20076;-73
2023/01/30 08:35:40;;;;;;;21.48;3.97;;;6.50;99.90;;;;;;5018186;28;20668;-74
2023/01/30 08:38:09;;;;;;;21.10;4.95;;;6.50;99.90;;;;;;5033952;28;20041;-71
2023/01/30 08:40:35;;;;;;;22.73;5.15;;;6.50;99.90;;;;;;5052003;28;20125;-73
2023/01/30 08:43:02;;;;;;;25.15;4.78;;;6.60;99.90;;;;;;5033248;28;20052;-71
2023/01/30 08:45:28;;;;;;;29.15;5.55;;;6.70;99.90;;;;;;5034034;28;20102;-72
2023/01/30 08:48:00;;;;;;;23.08;4.95;;;6.80;99.90;;;;;;5034596;28;20119;-73
2023/01/30 08:50:27;;;;;;;32.13;5.20;;;6.70;99.90;;;;;;5051362;28;20049;-73
2023/01/30 08:52:53;;;;;;;24.92;5.45;;;6.70;99.90;;;;;;5051601;28;20474;-72
2023/01/30 08:55:19;;;;;;;24.02;5.03;;;6.80;99.90;;;;;;5017383;28;20071;-71
2023/01/30 08:57:45;;;;;;;23.48;4.57;;;6.80;99.90;;;;;;5016865;28;20029;-72
2023/01/30 09:00:12;;;;;;;20.90;5.40;;;6.80;99.90;;;;;;5049253;28;20068;-70
2023/01/30 09:02:38;;;;;;;22.27;4.78;;;6.90;99.90;;;;;;5051049;28;20108;-69
2023/01/30 09:05:04;;;;;;;20.30;4.32;;;6.90;99.90;;;;;;5050423;28;20540;-71
2023/01/30 09:07:30;;;;;;;21.63;5.00;;;6.90;99.90;;;;;;5033132;28;20063;-72
2023/01/30 09:09:56;;;;;;;19.75;4.40;;;6.90;99.90;;;;;;5016802;28;20044;-72
2023/01/30 09:12:22;;;;;;;21.50;4.32;;;6.90;99.90;;;;;;5050466;28;20041;-70
2023/01/30 09:14:48;;;;;;;20.23;4.00;;;7.00;99.90;;;;;;5051211;28;20033;-69
2023/01/30 09:17:13;;;;;;;30.15;6.60;;;6.90;99.90;;;;;;5050979;28;20037;-72
2023/01/30 09:19:39;;;;;;;26.85;5.72;;;7.10;99.90;;;;;;5020941;28;20041;-71
2023/01/30 09:22:08;;;;;;;18.58;4.05;;;7.10;99.90;;;;;;5016653;28;20166;-70
2023/01/30 09:24:34;;;;;;;31.50;5.10;;;7.30;99.90;;;;;;5032137;28;20051;-71
2023/01/30 09:27:00;;;;;;;17.83;4.30;;;7.90;99.90;;;;;;5050123;28;20033;-71
2023/01/30 09:29:26;;;;;;;25.10;5.68;;;8.50;99.90;;;;;;5050474;28;20488;-70
2023/01/30 09:31:53;;;;;;;24.02;4.75;;;9.00;99.90;;;;;;5031456;28;20095;-70
2023/01/30 09:34:18;;;;;;;15.90;3.70;;;9.30;99.90;;;;;;5016567;28;20041;-68
2023/01/30 09:36:44;;;;;;;28.35;5.60;;;9.60;99.90;;;;;;5050515;28;20040;-70
2023/01/30 09:39:10;;;;;;;25.10;5.32;;;9.80;99.90;;;;;;5032146;28;20486;-70
2023/01/30 09:41:51;;;;;;;24.02;4.80;;;10.00;99.90;;;;;;5016467;28;20049;-67
2023/01/30 09:44:16;;;;;;;20.30;6.22;;;10.00;99.90;;;;;;5050557;28;20078;-69
2023/01/30 09:47:09;;;;;;;20.38;4.18;;;10.10;99.90;;;;;;5050082;28;20045;-71
2023/01/30 09:50:34;;;;;;;22.20;4.13;;;10.30;99.90;;;;;;5032766;28;20044;-70
2023/01/30 09:53:30;;;;;;;25.77;5.60;;;10.30;99.90;;;;;;5027471;28;20049;-71
2023/01/30 09:55:58;;;;;;;20.88;4.78;;;9.90;99.90;;;;;;5011657;28;20044;-71
2023/01/30 09:58:28;;;;;;;26.52;4.80;;;9.90;99.90;;;;;;5028175;28;20049;-68
2023/01/30 10:01:05;;;;;;;20.50;5.45;;;9.80;99.90;;;;;;5011167;28;20546;-69
2023/01/30 10:03:47;;;;;;;23.38;4.68;;;9.60;99.90;;;;;;5026837;28;20077;-70
2023/01/30 10:06:15;;;;;;;28.15;5.97;;;9.40;99.90;;;;;;5011508;28;20045;-71
2023/01/30 10:09:08;;;;;;;22.88;4.65;;;9.40;99.90;;;;;;5027362;28;20505;-70
2023/01/30 10:11:51;;;;;;;25.67;5.38;;;9.90;99.90;;;;;;5011641;28;20075;-70
2023/01/30 10:14:25;;;;;;;18.17;4.47;;;10.20;99.90;;;;;;5006938;28;20128;-71
2023/01/30 10:16:53;;;;;;;22.60;5.93;;;10.30;99.90;;;;;;5031253;28;20045;-70
2023/01/30 10:19:26;;;;;;;19.30;4.57;;;10.00;99.90;;;;;;5031955;28;20052;-70
2023/01/30 10:22:18;;;;;;;21.52;6.20;;;9.70;99.90;;;;;;5031421;28;20045;-70
2023/01/30 10:24:58;;;;;;;19.75;5.10;;;9.50;99.90;;;;;;5054282;28;20051;-68
2023/01/30 10:27:28;;;;;;;24.65;5.18;;;9.20;99.90;;;;;;5036710;28;20132;-70
2023/01/30 10:29:58;;;;;;;23.77;5.43;;;8.80;99.90;;;;;;5035980;28;20095;-70
2023/01/30 10:32:27;;;;;;;21.50;5.13;;;8.60;99.90;;;;;;5036231;28;20389;-71
2023/01/30 10:34:57;;;;;;;22.17;5.68;;;8.40;99.90;;;;;;5052387;28;20053;-71
2023/01/30 10:37:29;;;;;;;26.23;5.15;;;8.30;99.90;;;;;;5036065;28;20124;-70
2023/01/30 10:39:57;;;;;;;22.38;5.65;;;8.40;99.90;;;;;;5053927;28;20388;-70
2023/01/30 10:42:41;;;;;;;23.95;4.72;;;8.50;99.90;;;;;;5053072;28;20067;-69
2023/01/30 10:45:15;;;;;;;29.80;6.05;;;8.40;99.90;;;;;;5053905;28;20477;-70
2023/01/30 10:48:09;;;;;;;22.00;4.60;;;8.30;99.90;;;;;;5036218;28;20040;-70
2023/01/30 10:50:58;;;;;;;28.85;5.55;;;8.20;99.90;;;;;;5017124;28;20075;-72
2023/01/30 10:53:32;;;;;;;30.70;5.00;;;8.20;99.90;;;;;;5036139;28;20037;-70
2023/01/30 10:56:31;;;;;;;18.60;4.70;;;8.20;99.90;;;;;;5035301;28;20436;-70
2023/01/30 10:59:24;;;;;;;27.50;5.03;;;8.20;99.90;;;;;;5021954;28;20059;-70
2023/01/30 11:02:00;;;;;;;24.75;4.97;;;8.30;99.90;;;;;;5053560;28;20530;-68
2023/01/30 11:04:45;;;;;;;31.17;5.95;;;8.30;99.90;;;;;;5052891;28;20123;-71
2023/01/30 11:07:12;;;;;;;26.75;5.68;;;8.30;99.90;;;;;;5053265;28;20065;-73
2023/01/30 11:09:44;;;;;;;24.45;6.43;;;8.20;99.90;;;;;;5019142;28;20068;-71
2023/01/30 11:12:11;;;;;;;24.30;6.13;;;8.20;99.90;;;;;;5052929;28;20048;-70
2023/01/30 11:14:59;;;;;;;30.50;6.03;;;8.20;99.90;;;;;;5053381;28;20045;-69
2023/01/30 11:17:36;;;;;;;29.83;5.95;;;8.20;99.90;;;;;;5033914;28;20041;-69
2023/01/30 11:20:18;;;;;;;28.70;5.93;;;8.20;99.90;;;;;;5050932;28;20118;-71
2023/01/30 11:23:05;;;;;;;32.42;5.05;;;8.20;99.90;;;;;;5035321;28;20056;-69
2023/01/30 11:25:55;;;;;;;33.60;6.00;;;8.20;99.90;;;;;;5034168;28;20045;-69
2023/01/30 11:28:25;;;;;;;21.73;4.82;;;8.40;99.90;;;;;;5031942;28;20184;-69
2023/01/30 11:30:59;;;;;;;17.27;5.30;;;8.40;99.90;;;;;;5052149;28;20041;-70
2023/01/30 11:33:34;;;;;;;21.85;5.15;;;8.50;99.90;;;;;;5052147;28;20063;-67
2023/01/30 11:36:02;;;;;;;22.27;5.18;;;8.60;99.90;;;;;;5052485;28;20111;-70
2023/01/30 11:38:34;;;;;;;23.08;4.65;;;8.70;99.90;;;;;;5034242;28;20401;-70
2023/01/30 11:41:09;;;;;;;18.85;4.72;;;8.70;99.90;;;;;;5035043;28;20048;-71
2023/01/30 11:43:38;;;;;;;22.25;5.13;;;8.60;99.90;;;;;;5052459;28;20044;-72
2023/01/30 11:46:06;;;;;;;24.85;5.13;;;8.50;99.90;;;;;;5052230;28;20037;-69
2023/01/30 11:48:39;;;;;;;23.35;7.13;;;8.40;99.90;;;;;;5034756;28;20136;-70
2023/01/30 11:51:05;;;;;;;28.13;5.13;;;8.40;99.90;;;;;;5034995;28;20421;-70
2023/01/30 11:53:44;;;;;;;22.02;5.43;;;8.40;99.90;;;;;;5034205;28;20041;-71
2023/01/30 11:56:21;;;;;;;26.35;5.50;;;8.30;99.90;;;;;;5052572;28;20056;-70
2023/01/30 11:58:57;;;;;;;26.85;6.75;;;8.20;99.90;;;;;;5052322;28;20040;-69
2023/01/30 12:01:35;;;;;;;20.27;4.30;;;8.00;99.90;;;;;;5034593;28;20041;-70
2023/01/30 12:04:08;;;;;;;27.15;6.90;;;8.00;99.90;;;;;;5052165;28;20070;-72
2023/01/30 12:06:37;;;;;;;21.98;5.25;;;8.50;99.90;;;;;;5033670;28;20053;-73
2023/01/30 12:09:04;;;;;;;23.73;5.63;;;8.70;99.90;;;;;;5034451;28;20076;-68
2023/01/30 12:11:36;;;;;;;22.05;4.32;;;8.50;99.90;;;;;;5034242;28;20045;-70
2023/01/30 12:14:12;;;;;;;24.48;5.13;;;8.30;99.90;;;;;;5033857;28;20029;-70
2023/01/30 12:17:01;;;;;;;16.98;3.10;;;8.10;99.90;;;;;;5034110;28;20037;-70
2023/01/30 12:19:50;;;;;;;9.40;2.22;;;7.70;99.90;;;;;;5034242;28;20512;-70
2023/01/30 12:22:39;;;;;;;7.93;1.33;;;7.40;99.90;;;;;;5052109;28;20760;-71
2023/01/30 12:25:21;;;;;;;8.38;2.08;;;7.30;99.90;;;;;;5051891;28;20474;-72
2023/01/30 12:27:58;;;;;;;10.60;2.38;;;7.20;99.90;;;;;;5051241;28;20049;-69
2023/01/30 12:30:42;;;;;;;9.95;2.22;;;7.80;99.90;;;;;;5034025;28;20037;-69
2023/01/30 12:33:14;;;;;;;9.77;1.88;;;8.50;99.90;;;;;;5045379;28;20041;-72
2023/01/30 12:35:56;;;;;;;10.38;2.30;;;8.90;99.90;;;;;;4996986;28;20069;-71
2023/01/30 12:38:34;;;;;;;16.27;3.20;;;9.40;99.90;;;;;;4996916;28;20433;-71
2023/01/30 12:41:22;;;;;;;12.73;2.85;;;9.60;99.90;;;;;;5031302;28;20444;-71
2023/01/30 12:44:15;;;;;;;17.20;4.60;;;9.80;99.90;;;;;;4997512;28;20049;-70
2023/01/30 12:47:05;;;;;;;13.70;2.75;;;9.80;99.90;;;;;;5031605;28;20041;-71
2023/01/30 12:49:56;;;;;;;22.17;3.75;;;9.70;99.90;;;;;;5030790;28;20489;-70
2023/01/30 12:52:21;;;;;;;21.73;4.18;;;9.60;99.90;;;;;;5035298;28;20084;-71
2023/01/30 12:55:01;;;;;;;14.68;4.10;;;9.20;99.90;;;;;;5051074;28;20072;-70
2023/01/30 12:57:33;;;;;;;18.50;4.53;;;9.00;99.90;;;;;;5051398;28;20067;-71
2023/01/30 13:00:04;;;;;;;19.27;4.22;;;8.70;99.90;;;;;;5032788;28;20032;-71
2023/01/30 13:02:45;;;;;;;26.23;5.10;;;8.60;99.90;;;;;;5033028;28;20036;-71
2023/01/30 13:05:34;;;;;;;23.30;4.85;;;8.50;99.90;;;;;;5051326;28;20068;-71
2023/01/30 13:08:11;;;;;;;19.73;4.53;;;8.50;99.90;;;;;;5050814;28;20127;-72